Time;durP1;ratioP1;P1;durP2;ratioP2;P2;SDS_P1;SDS_P2;PMS_P1;PMS_P2;Temp;Humidity;BMP_temperature;BMP_pressure;BME280_temperature;BME280_humidity;BME280_pressure;Samples;Min_cycle;Max_cycle;Signal;HPM_P1;HPM_P2
2022/08/13 00:01:05;;;;;;;;;;;;;;;17.36;55.76;100771.16;5092520;28;19923;-69
2022/08/13 00:04:10;;;;;;;;;;;;;;;17.18;56.19;100770.75;5090518;28;19919;-69
2022/08/13 00:07:13;;;;;;;;;;;;;;;17.34;55.80;100773.91;5092239;28;19919;-68
2022/08/13 00:10:29;;;;;;;;;;;;;;;17.24;55.30;100770.28;5092387;28;19919;-68
2022/08/13 00:13:33;;;;;;;;;;;;;;;17.31;54.91;100768.88;5092454;28;19968;-68
2022/08/13 00:16:37;;;;;;;;;;;;;;;17.20;55.17;100768.84;5092340;28;20284;-68
2022/08/13 00:19:45;;;;;;;;;;;;;;;16.95;56.14;100769.88;5092383;28;19942;-69
2022/08/13 00:22:49;;;;;;;;;;;;;;;17.11;56.06;100766.91;5092248;28;20011;-69
2022/08/13 00:25:54;;;;;;;;;;;;;;;17.14;56.29;100758.75;5092514;28;19919;-69
2022/08/13 00:28:57;;;;;;;;;;;;;;;17.03;56.79;100771.91;5092301;28;19965;-69
2022/08/13 00:32:00;;;;;;;;;;;;;;;16.91;56.96;100763.97;5091973;28;19966;-69
2022/08/13 00:35:04;;;;;;;;;;;;;;;16.86;57.41;100768.75;5092066;28;20411;-69
2022/08/13 00:38:12;;;;;;;;;;;;;;;16.81;57.60;100770.88;5092207;28;20365;-69
2022/08/13 00:41:37;;;;;;;;;;;;;;;16.82;57.27;100761.19;5092093;28;19961;-69
2022/08/13 00:44:39;;;;;;;;;;;;;;;16.70;57.12;100765.53;5091867;28;19927;-69
2022/08/13 00:51:08;;;;;;;;;;;;;;;16.61;57.40;100755.66;5095754;28;20376;-70
2022/08/13 00:54:13;;;;;;;;;;;;;;;16.49;57.24;100758.22;5095795;28;20014;-70
2022/08/13 00:57:16;;;;;;;;;;;;;;;16.47;57.37;100762.78;5096101;28;20327;-69
2022/08/13 01:00:21;;;;;;;;;;;;;;;16.36;57.72;100762.72;5095958;28;19958;-69
2022/08/13 01:03:25;;;;;;;;;;;;;;;16.39;58.30;100757.22;5095785;28;19919;-69
2022/08/13 01:06:28;;;;;;;;;;;;;;;16.44;58.65;100759.53;5095658;28;20006;-69
2022/08/13 01:09:31;;;;;;;;;;;;;;;16.34;58.59;100759.38;5095699;28;20368;-69
2022/08/13 01:12:36;;;;;;;;;;;;;;;16.29;58.48;100764.13;5095269;28;19969;-70
2022/08/13 01:15:41;;;;;;;;;;;;;;;16.41;58.16;100759.75;5095575;28;19918;-68
2022/08/13 01:18:46;;;;;;;;;;;;;;;16.26;58.56;100761.72;5095354;28;19930;-69
2022/08/13 01:21:50;;;;;;;;;;;;;;;16.31;58.54;100764.88;5095234;28;19923;-68
2022/08/13 01:24:53;;;;;;;;;;;;;;;16.18;58.75;100766.72;5095322;28;19973;-69
2022/08/13 01:27:56;;;;;;;;;;;;;;;16.10;58.92;100761.97;5095261;28;20013;-69
2022/08/13 01:31:05;;;;;;;;;;;;;;;16.06;59.02;100764.94;5095288;28;19953;-68
2022/08/13 01:34:09;;;;;;;;;;;;;;;16.00;59.14;100766.22;5094960;28;20083;-68
2022/08/13 01:37:13;;;;;;;;;;;;;;;16.02;59.00;100765.16;5095387;28;19957;-68
2022/08/13 01:40:17;;;;;;;;;;;;;;;15.92;58.72;100758.00;5095049;28;19923;-68
2022/08/13 01:43:20;;;;;;;;;;;;;;;15.83;59.13;100761.31;5094856;28;19958;-69
2022/08/13 01:46:23;;;;;;;;;;;;;;;15.83;59.57;100759.50;5094432;28;20446;-69
2022/08/13 01:52:50;;;;;;;;;;;;;;;15.78;59.45;100762.44;5094784;28;19994;-69
2022/08/13 01:55:54;;;;;;;;;;;;;;;15.95;59.23;100763.91;5094665;28;19919;-69
2022/08/13 01:58:58;;;;;;;;;;;;;;;15.73;60.07;100763.72;5081891;28;19938;-69
2022/08/13 02:02:02;;;;;;;;;;;;;;;15.76;60.14;100768.78;5094434;28;19923;-69
2022/08/13 02:05:10;;;;;;;;;;;;;;;15.58;60.33;100771.72;5094542;28;20029;-69
2022/08/13 02:08:14;;;;;;;;;;;;;;;15.66;60.26;100770.34;5094455;28;20404;-69
2022/08/13 02:11:17;;;;;;;;;;;;;;;15.57;60.59;100770.06;5094354;28;20338;-69
2022/08/13 02:14:21;;;;;;;;;;;;;;;15.64;60.46;100772.25;5094825;28;19947;-69
2022/08/13 02:17:27;;;;;;;;;;;;;;;15.57;60.49;100775.31;5094181;28;20019;-69
2022/08/13 02:20:34;;;;;;;;;;;;;;;15.59;60.31;100775.19;5093961;28;19974;-69
2022/08/13 02:23:37;;;;;;;;;;;;;;;15.54;60.67;100774.69;5094651;28;19919;-69
2022/08/13 02:26:42;;;;;;;;;;;;;;;15.42;61.05;100780.81;5094343;28;19923;-69
2022/08/13 02:29:46;;;;;;;;;;;;;;;15.46;60.89;100777.00;5094014;28;19965;-69
2022/08/13 02:32:49;;;;;;;;;;;;;;;15.45;60.93;100770.88;5093882;28;19918;-69
2022/08/13 02:35:54;;;;;;;;;;;;;;;15.40;61.17;100770.34;5094053;28;19965;-68
2022/08/13 02:39:01;;;;;;;;;;;;;;;15.33;61.59;100777.00;5094222;28;20380;-69
2022/08/13 02:42:04;;;;;;;;;;;;;;;15.29;61.51;100775.53;5093849;28;20057;-68
2022/08/13 02:45:08;;;;;;;;;;;;;;;15.18;61.93;100778.03;5093635;28;19968;-68
2022/08/13 02:48:11;;;;;;;;;;;;;;;14.99;62.25;100781.88;5093478;28;19923;-68
2022/08/13 02:51:15;;;;;;;;;;;;;;;14.95;62.53;100771.69;5093662;28;20044;-68
2022/08/13 02:54:20;;;;;;;;;;;;;;;14.94;62.95;100778.72;5093727;28;20075;-68
2022/08/13 02:57:23;;;;;;;;;;;;;;;14.90;63.26;100769.38;5093737;28;20423;-68
2022/08/13 03:00:29;;;;;;;;;;;;;;;15.02;62.71;100779.06;5093333;28;19970;-68
2022/08/13 03:03:32;;;;;;;;;;;;;;;14.95;62.25;100771.69;5080917;28;20400;-69
2022/08/13 03:06:35;;;;;;;;;;;;;;;14.96;62.45;100774.19;5093374;28;19965;-69
2022/08/13 03:09:38;;;;;;;;;;;;;;;14.86;62.93;100783.66;5093166;28;20286;-69
2022/08/13 03:12:44;;;;;;;;;;;;;;;14.74;63.05;100780.06;5093356;28;19965;-69
2022/08/13 03:15:50;;;;;;;;;;;;;;;14.73;63.06;100777.50;5093110;28;19919;-69
2022/08/13 03:18:54;;;;;;;;;;;;;;;14.81;63.11;100775.22;5093185;28;20215;-69
2022/08/13 03:21:58;;;;;;;;;;;;;;;14.91;62.94;100778.09;5093090;28;20018;-69
2022/08/13 03:25:03;;;;;;;;;;;;;;;14.83;63.19;100786.47;5093214;28;19918;-69
2022/08/13 03:28:09;;;;;;;;;;;;;;;14.64;63.80;100779.81;5093121;28;19957;-69
2022/08/13 03:31:15;;;;;;;;;;;;;;;14.55;63.92;100782.19;5093000;28;19935;-69
2022/08/13 03:34:20;;;;;;;;;;;;;;;14.43;64.17;100782.00;5093189;28;19923;-69
2022/08/13 03:37:24;;;;;;;;;;;;;;;14.33;64.31;100785.34;5092960;28;19939;-68
2022/08/13 03:41:00;;;;;;;;;;;;;;;14.45;64.32;100774.00;5092761;28;20012;-69
2022/08/13 03:43:54;;;;;;;;;;;;;;;14.47;64.66;100787.06;5092530;28;19923;-69
2022/08/13 03:46:57;;;;;;;;;;;;;;;14.51;64.15;100778.06;5092788;28;19919;-69
2022/08/13 03:50:00;;;;;;;;;;;;;;;14.32;64.54;100778.38;5092701;28;19962;-69
2022/08/13 03:53:04;;;;;;;;;;;;;;;14.34;64.53;100776.50;5092572;28;19919;-69
2022/08/13 03:56:07;;;;;;;;;;;;;;;14.23;64.97;100784.22;5092580;28;19957;-68
2022/08/13 03:59:13;;;;;;;;;;;;;;;14.30;64.88;100780.28;5092563;28;20296;-68
2022/08/13 04:02:17;;;;;;;;;;;;;;;14.22;65.21;100782.53;5092549;28;19942;-69
2022/08/13 04:05:20;;;;;;;;;;;;;;;14.41;64.38;100790.94;5092403;28;19973;-69
2022/08/13 04:08:23;;;;;;;;;;;;;;;14.24;65.04;100785.91;5092697;28;20304;-69
2022/08/13 04:11:26;;;;;;;;;;;;;;;14.03;65.87;100783.69;5092654;28;19919;-69
2022/08/13 04:14:30;;;;;;;;;;;;;;;14.00;66.06;100783.88;5092307;28;19969;-69
2022/08/13 04:17:35;;;;;;;;;;;;;;;14.05;65.72;100787.06;5092179;28;19919;-69
2022/08/13 04:20:39;;;;;;;;;;;;;;;14.03;65.90;100788.94;5081004;28;20534;-69
2022/08/13 04:24:11;;;;;;;;;;;;;;;14.05;65.82;100783.59;5096579;28;19919;-69
2022/08/13 04:27:58;;;;;;;;;;;;;;;14.14;65.36;100786.50;5096350;28;19969;-69
2022/08/13 04:31:02;;;;;;;;;;;;;;;13.96;66.28;100792.91;5096122;28;19918;-63
2022/08/13 04:34:05;;;;;;;;;;;;;;;13.98;65.93;100798.06;5096342;28;19919;-62
2022/08/13 04:37:09;;;;;;;;;;;;;;;14.00;66.03;100796.19;5096340;28;19918;-62
2022/08/13 04:40:13;;;;;;;;;;;;;;;13.81;66.84;100788.59;5096376;28;20064;-62
2022/08/13 04:43:16;;;;;;;;;;;;;;;13.82;67.11;100795.53;5096220;28;20456;-62
2022/08/13 04:46:19;;;;;;;;;;;;;;;13.88;66.93;100798.63;5095929;28;20011;-62
2022/08/13 04:49:22;;;;;;;;;;;;;;;13.65;67.42;100794.75;5096169;28;19935;-62
2022/08/13 04:52:25;;;;;;;;;;;;;;;13.76;67.34;100788.88;5096035;28;19923;-62
2022/08/13 04:55:29;;;;;;;;;;;;;;;13.94;66.62;100790.38;5096002;28;19919;-62
2022/08/13 04:58:35;;;;;;;;;;;;;;;13.78;67.33;100786.13;5095867;28;20162;-62
2022/08/13 05:01:38;;;;;;;;;;;;;;;13.78;67.50;100799.28;5095703;28;20535;-62
2022/08/13 05:04:41;;;;;;;;;;;;;;;13.63;68.44;100799.28;5096071;28;19931;-62
2022/08/13 05:07:51;;;;;;;;;;;;;;;13.79;67.90;100801.00;5096113;28;20354;-62
2022/08/13 05:10:55;;;;;;;;;;;;;;;13.87;67.67;100801.34;5095849;28;19939;-62
2022/08/13 05:13:58;;;;;;;;;;;;;;;14.04;66.88;100803.78;5096099;28;19997;-62
2022/08/13 05:17:03;;;;;;;;;;;;;;;14.43;64.77;100797.78;5095583;28;19941;-62
2022/08/13 05:20:13;;;;;;;;;;;;;;;14.53;64.03;100805.13;5095271;28;20015;-62
2022/08/13 05:23:15;;;;;;;;;;;;;;;14.67;63.34;100804.22;5095381;28;19918;-62
2022/08/13 05:26:25;;;;;;;;;;;;;;;14.70;63.13;100809.28;5095539;28;19919;-62
2022/08/13 05:29:29;;;;;;;;;;;;;;;15.04;62.44;100808.78;4741110;28;10000415;-62
2022/08/13 05:32:38;;;;;;;;;;;;;;;15.09;62.38;100806.69;5093594;27;20367;-62
2022/08/13 05:35:42;;;;;;;;;;;;;;;15.19;60.70;100809.56;5113760;27;20383;-62
2022/08/13 05:38:48;;;;;;;;;;;;;;;15.32;58.06;100801.66;5117333;27;19976;-63
2022/08/13 05:41:51;;;;;;;;;;;;;;;15.39;58.10;100802.09;5135519;27;20363;-63
2022/08/13 05:44:56;;;;;;;;;;;;;;;15.48;57.44;100804.94;5107431;27;19958;-63
2022/08/13 05:47:59;;;;;;;;;;;;;;;15.62;57.15;100797.88;5115255;28;19919;-62
2022/08/13 05:51:04;;;;;;;;;;;;;;;15.67;57.40;100806.34;5117419;27;19942;-62
2022/08/13 05:54:10;;;;;;;;;;;;;;;15.85;56.99;100809.47;5132868;27;19953;-62
2022/08/13 05:57:15;;;;;;;;;;;;;;;15.88;57.42;100815.38;5135808;27;19964;-63
2022/08/13 06:03:41;;;;;;;;;;;;;;;16.21;56.54;100800.78;5135616;27;19918;-62
2022/08/13 06:06:44;;;;;;;;;;;;;;;16.25;56.79;100804.88;5135517;27;20414;-62
2022/08/13 06:09:47;;;;;;;;;;;;;;;16.19;57.70;100807.97;5134979;27;19918;-62
2022/08/13 06:12:50;;;;;;;;;;;;;;;16.19;58.77;100808.78;5134988;27;20338;-63
2022/08/13 06:15:58;;;;;;;;;;;;;;;16.47;57.74;100801.53;5134780;27;20014;-63
2022/08/13 06:19:03;;;;;;;;;;;;;;;16.63;56.98;100801.28;5135273;27;20052;-62
2022/08/13 06:22:06;;;;;;;;;;;;;;;16.78;56.37;100799.31;5134995;27;19921;-63
2022/08/13 06:25:09;;;;;;;;;;;;;;;17.02;56.45;100797.50;5134228;27;20048;-63
2022/08/13 06:28:15;;;;;;;;;;;;;;;17.15;56.50;100802.69;5126605;27;19999;-63
2022/08/13 06:31:25;;;;;;;;;;;;;;;17.28;56.14;100792.88;5121612;27;19964;-64
2022/08/13 06:34:31;;;;;;;;;;;;;;;17.30;55.95;100790.97;5120286;27;19991;-64
2022/08/13 06:37:34;;;;;;;;;;;;;;;17.40;55.78;100791.94;5134508;27;19984;-64
2022/08/13 06:40:39;;;;;;;;;;;;;;;17.50;55.37;100791.25;5134698;27;20348;-63
2022/08/13 06:43:43;;;;;;;;;;;;;;;17.34;56.15;100787.13;5133704;27;20366;-64
2022/08/13 06:46:46;;;;;;;;;;;;;;;17.40;56.62;100794.59;5109485;28;20387;-65
2022/08/13 06:49:50;;;;;;;;;;;;;;;17.70;55.47;100789.69;5114407;28;19919;-65
2022/08/13 06:52:56;;;;;;;;;;;;;;;17.73;56.05;100790.28;5113686;28;19923;-65
2022/08/13 06:56:01;;;;;;;;;;;;;;;17.89;55.19;100788.16;5114239;28;20346;-65
2022/08/13 06:59:04;;;;;;;;;;;;;;;18.05;54.62;100782.50;5113912;28;19922;-65
2022/08/13 07:02:09;;;;;;;;;;;;;;;18.23;54.13;100782.84;5113657;28;19922;-65
2022/08/13 07:05:12;;;;;;;;;;;;;;;18.31;53.76;100788.38;5113707;28;19955;-65
2022/08/13 07:08:16;;;;;;;;;;;;;;;18.48;53.58;100787.00;5113109;28;19918;-65
2022/08/13 07:11:22;;;;;;;;;;;;;;;18.61;53.92;100778.06;5113194;28;19918;-65
2022/08/13 07:14:25;;;;;;;;;;;;;;;18.76;53.74;100776.81;5113069;28;19941;-65
2022/08/13 07:17:30;;;;;;;;;;;;;;;18.88;53.10;100780.25;5113356;28;19992;-65
2022/08/13 07:20:35;;;;;;;;;;;;;;;19.05;52.73;100777.06;5100468;28;20295;-65
2022/08/13 07:23:39;;;;;;;;;;;;;;;19.16;52.26;100779.63;5113221;28;19954;-65
2022/08/13 07:26:42;;;;;;;;;;;;;;;19.26;51.96;100775.22;5113017;28;20285;-66
2022/08/13 07:29:49;;;;;;;;;;;;;;;19.41;52.07;100774.91;5092413;28;19919;-66
2022/08/13 07:32:52;;;;;;;;;;;;;;;19.50;50.84;100779.41;5092612;28;19973;-66
2022/08/13 07:35:55;;;;;;;;;;;;;;;19.61;50.60;100774.00;5092287;28;19923;-65
2022/08/13 07:39:05;;;;;;;;;;;;;;;19.81;50.22;100769.66;5092349;28;19980;-65
2022/08/13 07:42:08;;;;;;;;;;;;;;;20.01;48.88;100773.25;5092462;28;20580;-65
2022/08/13 07:45:20;;;;;;;;;;;;;;;20.32;47.69;100776.66;5094390;28;19922;-66
2022/08/13 07:48:27;;;;;;;;;;;;;;;20.47;47.74;100766.47;5091970;28;19918;-66
2022/08/13 07:51:31;;;;;;;;;;;;;;;20.67;46.31;100762.88;5092137;28;20280;-65
2022/08/13 07:54:34;;;;;;;;;;;;;;;20.82;46.29;100760.63;5092303;28;20049;-66
2022/08/13 07:57:43;;;;;;;;;;;;;;;21.01;45.78;100749.16;5092168;28;20404;-66
2022/08/13 08:00:49;;;;;;;;;;;;;;;21.16;45.43;100756.69;5091844;28;19969;-67
2022/08/13 08:03:55;;;;;;;;;;;;;;;21.13;45.08;100756.00;5092123;28;19988;-67
2022/08/13 08:07:01;;;;;;;;;;;;;;;21.29;44.86;100754.56;5092073;28;19957;-66
2022/08/13 08:10:06;;;;;;;;;;;;;;;21.44;44.37;100753.16;5092604;28;19919;-65
2022/08/13 08:13:09;;;;;;;;;;;;;;;21.64;45.25;100747.75;5092253;28;19919;-66
2022/08/13 08:16:12;;;;;;;;;;;;;;;21.77;43.33;100748.25;5091959;28;19958;-66
2022/08/13 08:19:16;;;;;;;;;;;;;;;21.71;44.34;100746.19;5091818;28;20335;-65
2022/08/13 08:22:21;;;;;;;;;;;;;;;21.65;44.39;100742.28;5092128;28;19927;-66
2022/08/13 08:25:24;;;;;;;;;;;;;;;21.93;44.03;100751.13;5092155;28;19955;-66
2022/08/13 08:28:31;;;;;;;;;;;;;;;21.94;43.53;100741.31;5112945;28;19956;-65
2022/08/13 08:31:38;;;;;;;;;;;;;;;21.98;43.42;100738.19;5132760;28;20457;-66
2022/08/13 08:34:44;;;;;;;;;;;;;;;22.05;42.80;100736.63;5132935;28;20425;-65
2022/08/13 08:44:40;;;;;;;;;;;;;;;22.22;41.99;100736.81;5132031;28;19942;-75
2022/08/13 08:47:43;;;;;;;;;;;;;;;22.57;41.19;100732.50;5106586;28;19969;-75
2022/08/13 08:50:48;;;;;;;;;;;;;;;22.56;40.67;100720.16;5078644;28;20373;-74
2022/08/13 08:53:51;;;;;;;;;;;;;;;22.70;40.71;100723.13;5090788;28;20388;-75
2022/08/13 08:56:54;;;;;;;;;;;;;;;23.00;40.67;100720.19;5091557;28;19938;-74
2022/08/13 08:59:57;;;;;;;;;;;;;;;23.16;40.76;100712.31;5091126;28;20020;-74
2022/08/13 09:03:00;;;;;;;;;;;;;;;23.07;39.86;100711.44;5078836;28;19919;-75
2022/08/13 09:06:04;;;;;;;;;;;;;;;22.97;39.98;100714.19;5091436;28;19923;-75
2022/08/13 09:09:08;;;;;;;;;;;;;;;23.30;39.78;100703.72;5095328;28;20466;-75
2022/08/13 09:12:12;;;;;;;;;;;;;;;23.24;39.81;100706.19;5095184;28;19923;-75
2022/08/13 09:15:22;;;;;;;;;;;;;;;23.27;39.72;100696.03;5095221;28;19919;-75
2022/08/13 09:18:26;;;;;;;;;;;;;;;23.50;39.17;100690.16;5094958;28;19931;-75
2022/08/13 09:21:29;;;;;;;;;;;;;;;23.98;37.01;100696.69;5094842;28;19939;-75
2022/08/13 09:24:37;;;;;;;;;;;;;;;23.83;38.30;100691.94;5094969;28;20299;-75
2022/08/13 09:27:43;;;;;;;;;;;;;;;23.99;37.45;100687.66;5102267;27;20272;-75
2022/08/13 09:30:46;;;;;;;;;;;;;;;23.94;37.94;100682.81;5136379;27;20330;-75
2022/08/13 09:33:52;;;;;;;;;;;;;;;24.26;37.37;100684.72;5135791;27;20288;-75
2022/08/13 09:36:57;;;;;;;;;;;;;;;24.21;36.76;100676.34;5135289;27;20096;-75
2022/08/13 09:40:04;;;;;;;;;;;;;;;24.78;35.95;100679.06;5135478;27;20291;-75
2022/08/13 09:43:10;;;;;;;;;;;;;;;24.66;35.84;100685.75;5135152;27;19926;-76
2022/08/13 09:46:15;;;;;;;;;;;;;;;24.48;36.73;100682.44;5135263;27;20299;-75
2022/08/13 09:49:20;;;;;;;;;;;;;;;24.46;36.65;100673.72;5109605;27;19965;-75
2022/08/13 09:52:23;;;;;;;;;;;;;;;24.71;35.96;100663.88;5114824;28;20618;-75
2022/08/13 09:55:26;;;;;;;;;;;;;;;24.98;36.60;100663.50;5114684;28;20074;-75
2022/08/13 09:58:29;;;;;;;;;;;;;;;24.77;35.80;100650.66;5114862;28;19964;-74
2022/08/13 10:01:34;;;;;;;;;;;;;;;24.95;36.31;100652.28;5114764;28;20326;-75
2022/08/13 10:04:37;;;;;;;;;;;;;;;25.19;35.48;100654.94;5115075;28;19933;-76
2022/08/13 10:07:40;;;;;;;;;;;;;;;25.15;35.25;100648.25;5115007;28;19919;-75
2022/08/13 10:10:44;;;;;;;;;;;;;;;25.27;34.92;100651.38;5114966;28;19918;-75
2022/08/13 10:13:48;;;;;;;;;;;;;;;25.39;34.72;100654.53;5114801;28;19935;-75
2022/08/13 10:16:53;;;;;;;;;;;;;;;25.66;33.51;100656.75;5114727;28;19956;-76
2022/08/13 10:19:57;;;;;;;;;;;;;;;25.63;33.25;100645.56;5114243;28;20334;-75
2022/08/13 10:23:01;;;;;;;;;;;;;;;25.66;33.76;100634.50;5114973;28;19953;-75
2022/08/13 10:26:05;;;;;;;;;;;;;;;25.70;33.27;100639.31;5115097;28;19918;-75
2022/08/13 10:29:08;;;;;;;;;;;;;;;25.47;34.02;100636.59;5102328;28;19933;-75
2022/08/13 10:32:11;;;;;;;;;;;;;;;25.41;33.26;100621.22;5114297;28;19964;-75
2022/08/13 10:35:19;;;;;;;;;;;;;;;25.41;33.47;100617.72;5113870;28;20000;-75
2022/08/13 10:38:26;;;;;;;;;;;;;;;25.46;33.40;100610.84;5114469;28;19998;-75
2022/08/13 10:41:29;;;;;;;;;;;;;;;25.85;32.78;100611.81;5114142;28;19923;-75
2022/08/13 10:44:34;;;;;;;;;;;;;;;26.03;31.99;100604.28;5113438;28;20400;-75
2022/08/13 10:47:43;;;;;;;;;;;;;;;25.84;31.81;100599.41;5113974;28;19935;-75
2022/08/13 10:50:47;;;;;;;;;;;;;;;26.04;32.81;100589.03;5113551;28;19918;-75
2022/08/13 10:58:13;;;;;;;;;;;;;;;26.47;32.90;100582.16;5113576;28;20389;-75
2022/08/13 11:01:16;;;;;;;;;;;;;;;26.54;30.69;100580.44;5113797;28;20034;-75
2022/08/13 11:04:19;;;;;;;;;;;;;;;26.53;31.61;100580.63;5113855;28;19976;-75
2022/08/13 11:07:25;;;;;;;;;;;;;;;26.25;31.52;100575.00;5112737;28;19999;-75
2022/08/13 11:10:29;;;;;;;;;;;;;;;26.54;31.40;100569.69;5113706;28;19919;-75
2022/08/13 11:13:32;;;;;;;;;;;;;;;26.66;31.56;100570.91;5113188;28;19918;-75
2022/08/13 11:19:44;;;;;;;;;;;;;;;26.80;30.96;100566.59;5101057;28;19922;-75
2022/08/13 11:22:49;;;;;;;;;;;;;;;26.83;31.16;100568.06;5113556;28;19923;-75
2022/08/13 11:25:52;;;;;;;;;;;;;;;26.70;30.61;100557.97;5113423;28;19957;-75
2022/08/13 11:28:55;;;;;;;;;;;;;;;26.62;30.99;100564.25;5113213;28;19919;-75
2022/08/13 11:31:58;;;;;;;;;;;;;;;26.55;30.42;100549.94;5113108;28;19968;-75
2022/08/13 11:35:01;;;;;;;;;;;;;;;26.83;31.22;100557.31;5113141;28;20012;-75
2022/08/13 11:38:11;;;;;;;;;;;;;;;27.02;30.69;100546.00;5100824;28;19956;-75
2022/08/13 11:41:14;;;;;;;;;;;;;;;27.35;29.51;100551.84;5112359;28;19922;-75
2022/08/13 11:44:17;;;;;;;;;;;;;;;27.46;29.85;100544.28;5112634;28;19973;-73
2022/08/13 11:47:20;;;;;;;;;;;;;;;27.55;28.70;100544.00;5112729;28;20296;-74
2022/08/13 11:50:23;;;;;;;;;;;;;;;27.42;29.27;100551.06;5112442;28;19956;-74
2022/08/13 11:53:26;;;;;;;;;;;;;;;27.15;29.06;100552.59;5112653;28;20018;-74
2022/08/13 11:56:29;;;;;;;;;;;;;;;27.26;29.34;100539.53;5112512;28;20056;-74
2022/08/13 11:59:33;;;;;;;;;;;;;;;27.50;28.41;100538.34;5112595;28;19918;-75
2022/08/13 12:02:36;;;;;;;;;;;;;;;27.64;27.79;100538.50;5112788;28;19923;-74
2022/08/13 12:05:39;;;;;;;;;;;;;;;27.39;28.48;100538.03;5112836;28;19923;-74
2022/08/13 12:08:42;;;;;;;;;;;;;;;27.64;29.60;100533.97;5080038;28;19919;-74
2022/08/13 12:11:46;;;;;;;;;;;;;;;28.02;28.35;100531.84;5092165;28;19918;-74
2022/08/13 12:14:50;;;;;;;;;;;;;;;28.05;27.87;100531.47;5092224;28;19951;-75
2022/08/13 12:17:54;;;;;;;;;;;;;;;28.19;27.76;100515.44;5091549;28;20313;-75
2022/08/13 12:20:57;;;;;;;;;;;;;;;28.12;28.07;100520.78;5077942;28;19973;-75
2022/08/13 12:24:00;;;;;;;;;;;;;;;27.91;27.46;100523.47;5079036;28;19939;-75
2022/08/13 12:27:03;;;;;;;;;;;;;;;27.95;28.03;100522.91;5091069;28;19919;-74
2022/08/13 12:30:07;;;;;;;;;;;;;;;28.19;27.78;100518.13;5090754;28;20246;-74
2022/08/13 12:33:10;;;;;;;;;;;;;;;28.03;27.10;100512.00;5091623;28;19991;-74
2022/08/13 12:36:13;;;;;;;;;;;;;;;28.18;27.75;100498.47;5079611;28;19966;-74
2022/08/13 12:39:16;;;;;;;;;;;;;;;28.52;27.60;100494.97;5091987;28;19965;-74
2022/08/13 12:42:19;;;;;;;;;;;;;;;28.82;26.42;100489.34;5094332;28;19942;-74
2022/08/13 12:45:22;;;;;;;;;;;;;;;29.36;25.57;100485.00;5096135;28;19961;-75
2022/08/13 12:48:28;;;;;;;;;;;;;;;29.44;25.19;100480.25;5096148;28;19919;-74
2022/08/13 12:51:31;;;;;;;;;;;;;;;29.72;24.89;100467.66;5096157;28;20002;-75
2022/08/13 12:54:34;;;;;;;;;;;;;;;29.85;24.62;100468.47;5095844;28;20213;-75
2022/08/13 12:57:37;;;;;;;;;;;;;;;29.97;24.36;100475.97;5095988;28;19918;-74
2022/08/13 13:00:40;;;;;;;;;;;;;;;30.41;24.20;100464.50;5095902;28;19922;-74
2022/08/13 13:03:43;;;;;;;;;;;;;;;30.60;23.46;100465.47;5095858;28;20284;-74
2022/08/13 13:06:46;;;;;;;;;;;;;;;30.85;23.29;100449.41;5095996;28;20289;-74
2022/08/13 13:09:50;;;;;;;;;;;;;;;30.85;22.95;100457.50;5095539;28;19919;-75
2022/08/13 13:12:54;;;;;;;;;;;;;;;30.84;22.38;100449.63;5095457;28;19919;-74
2022/08/13 13:15:56;;;;;;;;;;;;;;;31.11;22.79;100440.34;5094846;28;20013;-74
2022/08/13 13:18:59;;;;;;;;;;;;;;;31.46;22.32;100458.81;5106526;27;19918;-74
2022/08/13 13:22:06;;;;;;;;;;;;;;;31.40;22.90;100446.22;5115321;28;19961;-75
2022/08/13 13:25:09;;;;;;;;;;;;;;;31.66;21.56;100448.69;5095099;28;20331;-74
2022/08/13 13:28:13;;;;;;;;;;;;;;;32.06;21.56;100448.34;5098859;28;20354;-74
2022/08/13 13:31:17;;;;;;;;;;;;;;;32.37;20.95;100443.88;5094853;28;20012;-73
2022/08/13 13:34:20;;;;;;;;;;;;;;;32.72;20.65;100438.69;5096829;27;19933;-73
2022/08/13 13:37:23;;;;;;;;;;;;;;;33.22;20.58;100440.34;5136277;27;19918;-70
2022/08/13 13:40:26;;;;;;;;;;;;;;;33.83;19.79;100430.19;5135744;27;19987;-73
2022/08/13 13:43:30;;;;;;;;;;;;;;;34.54;18.93;100431.78;5135501;27;19958;-74
2022/08/13 13:46:35;;;;;;;;;;;;;;;34.98;18.66;100425.84;5122802;27;19955;-72
2022/08/13 13:49:38;;;;;;;;;;;;;;;35.79;17.61;100426.41;5135514;27;19920;-72
2022/08/13 13:52:42;;;;;;;;;;;;;;;36.30;16.79;100427.16;5135370;27;19964;-73
2022/08/13 13:55:45;;;;;;;;;;;;;;;37.87;15.90;100413.41;5135901;27;19918;-77
2022/08/13 13:58:54;;;;;;;;;;;;;;;40.43;13.16;100403.59;5138191;27;19964;-79
2022/08/13 14:02:04;;;;;;;;;;;;;;;41.57;12.83;100399.75;5110972;27;19923;-76
2022/08/13 14:05:07;;;;;;;;;;;;;;;40.47;13.11;100400.28;5122449;27;19934;-76
2022/08/13 14:08:11;;;;;;;;;;;;;;;42.60;11.54;100393.91;5135438;27;19918;-76
2022/08/13 14:11:18;;;;;;;;;;;;;;;41.76;12.33;100390.78;5130765;27;20398;-80
2022/08/13 14:14:22;;;;;;;;;;;;;;;43.48;11.25;100391.38;5114836;28;20375;-79
2022/08/13 14:17:30;;;;;;;;;;;;;;;41.82;11.75;100390.44;5114664;28;20303;-78
2022/08/13 14:20:35;;;;;;;;;;;;;;;42.38;11.78;100379.94;5113997;28;19926;-77
2022/08/13 14:23:39;;;;;;;;;;;;;;;43.93;10.34;100382.59;5114268;28;20007;-79
2022/08/13 14:26:43;;;;;;;;;;;;;;;44.64;9.87;100366.44;5114451;28;20014;-76
2022/08/13 14:29:47;;;;;;;;;;;;;;;43.75;10.90;100362.25;5099593;28;20284;-75
2022/08/13 14:32:51;;;;;;;;;;;;;;;44.73;10.03;100359.06;5114462;28;19977;-71
2022/08/13 14:35:54;;;;;;;;;;;;;;;43.51;10.67;100357.78;5113850;28;20415;-71
2022/08/13 14:39:01;;;;;;;;;;;;;;;44.79;9.89;100357.81;5114568;28;20388;-76
2022/08/13 14:42:04;;;;;;;;;;;;;;;43.02;10.53;100344.59;5113955;28;19923;-73
2022/08/13 14:48:31;;;;;;;;;;;;;;;44.62;9.62;100338.38;5114274;28;19934;-72
2022/08/13 14:51:36;;;;;;;;;;;;;;;43.29;10.59;100335.59;5113870;28;19988;-74
2022/08/13 14:54:40;;;;;;;;;;;;;;;42.19;11.54;100339.47;5114057;28;19919;-74
2022/08/13 14:57:44;;;;;;;;;;;;;;;42.72;11.33;100331.03;5114238;28;19968;-77
2022/08/13 15:00:49;;;;;;;;;;;;;;;44.04;10.47;100326.97;5114046;28;20010;-74
2022/08/13 15:03:54;;;;;;;;;;;;;;;43.19;13.49;100320.91;5112723;28;19956;-65
2022/08/13 15:06:58;;;;;;;;;;;;;;;42.94;11.72;100326.84;5114169;28;20418;-69
2022/08/13 15:10:02;;;;;;;;;;;;;;;44.50;11.66;100312.16;5113847;28;19918;-69
2022/08/13 15:13:08;;;;;;;;;;;;;;;45.47;10.04;100312.47;5114135;28;20289;-70
2022/08/13 15:16:12;;;;;;;;;;;;;;;44.12;11.44;100310.84;5101263;28;19934;-70
2022/08/13 15:19:16;;;;;;;;;;;;;;;42.58;11.17;100297.16;5099294;28;19918;-71
2022/08/13 15:22:20;;;;;;;;;;;;;;;41.20;12.15;100309.03;5111928;28;20011;-71
2022/08/13 15:25:24;;;;;;;;;;;;;;;41.32;12.35;100310.28;5112136;28;19956;-70
2022/08/13 15:28:27;;;;;;;;;;;;;;;40.42;12.52;100310.69;5112988;28;19919;-73
2022/08/13 15:31:34;;;;;;;;;;;;;;;40.23;11.76;100302.31;5113417;28;19918;-72
2022/08/13 15:34:36;;;;;;;;;;;;;;;40.61;12.45;100288.94;5113238;28;19918;-72
2022/08/13 15:37:40;;;;;;;;;;;;;;;41.49;12.12;100281.59;5100899;28;19919;-72
2022/08/13 15:40:45;;;;;;;;;;;;;;;41.61;11.64;100284.72;5113265;28;19972;-71
2022/08/13 15:43:53;;;;;;;;;;;;;;;40.89;12.27;100279.94;5113161;28;20277;-71
2022/08/13 15:46:56;;;;;;;;;;;;;;;40.93;11.62;100276.63;5113165;28;19918;-71
2022/08/13 15:50:00;;;;;;;;;;;;;;;39.40;12.74;100270.06;5113089;28;19965;-70
2022/08/13 15:53:04;;;;;;;;;;;;;;;39.75;12.78;100271.88;5113354;28;19919;-70
2022/08/13 15:56:07;;;;;;;;;;;;;;;40.73;11.65;100267.47;5113319;28;19922;-70
2022/08/13 15:59:11;;;;;;;;;;;;;;;39.52;12.98;100263.19;5112977;28;19976;-71
2022/08/13 16:02:14;;;;;;;;;;;;;;;41.19;12.10;100256.06;5112921;28;20025;-71
2022/08/13 16:05:21;;;;;;;;;;;;;;;41.31;11.57;100248.28;5112900;28;19918;-71
2022/08/13 16:08:26;;;;;;;;;;;;;;;40.89;12.07;100255.25;5112907;28;20280;-70
2022/08/13 16:11:29;;;;;;;;;;;;;;;39.38;13.50;100251.22;5100653;28;19972;-71
2022/08/13 16:14:32;;;;;;;;;;;;;;;39.08;12.85;100252.06;5112858;28;19918;-71